sensor_id;sensor_type;location;lat;lon;timestamp;P1;durP1;ratioP1;P2;durP2;ratioP2
14778;SDS011;7481;53.750;10.570;2023-03-31T00:02:00;15.50;;;4.53;;
14778;SDS011;7481;53.750;10.570;2023-03-31T00:04:47;18.37;;;4.90;;
14778;SDS011;7481;53.750;10.570;2023-03-31T00:07:38;11.03;;;4.63;;
14778;SDS011;7481;53.750;10.570;2023-03-31T00:10:29;13.07;;;5.83;;
14778;SDS011;7481;53.750;10.570;2023-03-31T00:13:20;12.47;;;6.43;;
14778;SDS011;7481;53.750;10.570;2023-03-31T00:16:08;13.13;;;7.10;;
14778;SDS011;7481;53.750;10.570;2023-03-31T00:18:56;17.33;;;7.50;;
14778;SDS011;7481;53.750;10.570;2023-03-31T00:21:45;19.27;;;8.33;;
14778;SDS011;7481;53.750;10.570;2023-03-31T00:24:33;16.13;;;8.23;;
14778;SDS011;7481;53.750;10.570;2023-03-31T00:27:21;17.13;;;8.13;;
14778;SDS011;7481;53.750;10.570;2023-03-31T00:30:08;17.10;;;8.00;;
14778;SDS011;7481;53.750;10.570;2023-03-31T00:32:56;16.10;;;7.90;;
14778;SDS011;7481;53.750;10.570;2023-03-31T00:35:44;13.70;;;7.67;;
14778;SDS011;7481;53.750;10.570;2023-03-31T00:38:32;16.83;;;7.13;;
14778;SDS011;7481;53.750;10.570;2023-03-31T00:41:19;15.73;;;7.70;;
14778;SDS011;7481;53.750;10.570;2023-03-31T00:44:10;15.80;;;7.77;;
14778;SDS011;7481;53.750;10.570;2023-03-31T00:47:14;14.23;;;8.53;;
14778;SDS011;7481;53.750;10.570;2023-03-31T00:50:04;18.43;;;9.17;;
14778;SDS011;7481;53.750;10.570;2023-03-31T00:52:59;20.57;;;10.13;;
14778;SDS011;7481;53.750;10.570;2023-03-31T00:55:48;21.50;;;10.30;;
14778;SDS011;7481;53.750;10.570;2023-03-31T00:58:37;19.80;;;10.27;;
14778;SDS011;7481;53.750;10.570;2023-03-31T01:01:29;24.37;;;11.30;;
14778;SDS011;7481;53.750;10.570;2023-03-31T01:04:17;24.67;;;10.90;;
14778;SDS011;7481;53.750;10.570;2023-03-31T01:07:21;20.97;;;10.27;;
14778;SDS011;7481;53.750;10.570;2023-03-31T01:10:11;23.47;;;9.53;;
14778;SDS011;7481;53.750;10.570;2023-03-31T01:12:59;25.30;;;9.30;;
14778;SDS011;7481;53.750;10.570;2023-03-31T01:15:47;22.87;;;8.60;;
14778;SDS011;7481;53.750;10.570;2023-03-31T01:18:34;23.03;;;8.00;;
14778;SDS011;7481;53.750;10.570;2023-03-31T01:30:17;20.17;;;7.00;;
14778;SDS011;7481;53.750;10.570;2023-03-31T01:42:05;17.20;;;6.17;;
14778;SDS011;7481;53.750;10.570;2023-03-31T01:45:05;23.30;;;7.10;;
14778;SDS011;7481;53.750;10.570;2023-03-31T01:50:55;15.47;;;4.83;;
14778;SDS011;7481;53.750;10.570;2023-03-31T01:56:48;23.43;;;5.77;;
14778;SDS011;7481;53.750;10.570;2023-03-31T01:59:39;17.43;;;4.60;;
14778;SDS011;7481;53.750;10.570;2023-03-31T02:02:30;20.70;;;5.23;;
14778;SDS011;7481;53.750;10.570;2023-03-31T02:05:19;16.03;;;4.53;;
14778;SDS011;7481;53.750;10.570;2023-03-31T02:08:12;17.50;;;4.67;;
14778;SDS011;7481;53.750;10.570;2023-03-31T02:11:01;17.47;;;4.70;;
14778;SDS011;7481;53.750;10.570;2023-03-31T02:13:49;20.67;;;5.53;;
14778;SDS011;7481;53.750;10.570;2023-03-31T02:16:38;17.13;;;4.57;;
14778;SDS011;7481;53.750;10.570;2023-03-31T02:19:28;19.90;;;4.87;;
14778;SDS011;7481;53.750;10.570;2023-03-31T02:22:17;16.10;;;4.83;;
14778;SDS011;7481;53.750;10.570;2023-03-31T02:25:08;15.53;;;4.23;;
14778;SDS011;7481;53.750;10.570;2023-03-31T02:27:59;22.87;;;5.03;;
14778;SDS011;7481;53.750;10.570;2023-03-31T02:33:38;18.10;;;5.43;;
14778;SDS011;7481;53.750;10.570;2023-03-31T02:36:25;18.23;;;5.57;;
14778;SDS011;7481;53.750;10.570;2023-03-31T02:39:14;18.97;;;4.80;;
14778;SDS011;7481;53.750;10.570;2023-03-31T02:42:03;20.43;;;5.40;;
14778;SDS011;7481;53.750;10.570;2023-03-31T02:44:53;23.77;;;5.00;;
14778;SDS011;7481;53.750;10.570;2023-03-31T02:47:41;20.13;;;4.70;;
14778;SDS011;7481;53.750;10.570;2023-03-31T02:50:30;18.00;;;4.47;;
14778;SDS011;7481;53.750;10.570;2023-03-31T02:53:22;19.83;;;5.37;;
14778;SDS011;7481;53.750;10.570;2023-03-31T03:13:25;17.70;;;4.73;;
14778;SDS011;7481;53.750;10.570;2023-03-31T03:16:18;14.20;;;4.90;;
14778;SDS011;7481;53.750;10.570;2023-03-31T03:19:16;12.53;;;4.80;;
14778;SDS011;7481;53.750;10.570;2023-03-31T03:22:04;21.60;;;5.57;;
14778;SDS011;7481;53.750;10.570;2023-03-31T03:24:54;11.97;;;4.67;;
14778;SDS011;7481;53.750;10.570;2023-03-31T03:27:42;22.23;;;6.77;;
14778;SDS011;7481;53.750;10.570;2023-03-31T03:30:30;15.90;;;4.60;;
14778;SDS011;7481;53.750;10.570;2023-03-31T03:33:17;16.10;;;5.40;;
14778;SDS011;7481;53.750;10.570;2023-03-31T03:36:05;20.00;;;5.13;;
14778;SDS011;7481;53.750;10.570;2023-03-31T03:38:53;17.47;;;7.03;;
14778;SDS011;7481;53.750;10.570;2023-03-31T03:41:41;19.17;;;5.90;;
14778;SDS011;7481;53.750;10.570;2023-03-31T03:44:28;20.50;;;6.03;;
14778;SDS011;7481;53.750;10.570;2023-03-31T03:47:16;18.73;;;5.80;;
14778;SDS011;7481;53.750;10.570;2023-03-31T03:50:04;16.80;;;5.80;;
14778;SDS011;7481;53.750;10.570;2023-03-31T03:52:51;16.53;;;5.97;;
14778;SDS011;7481;53.750;10.570;2023-03-31T03:55:39;24.57;;;7.43;;
14778;SDS011;7481;53.750;10.570;2023-03-31T03:58:27;16.13;;;6.27;;
14778;SDS011;7481;53.750;10.570;2023-03-31T04:01:14;22.23;;;6.20;;
14778;SDS011;7481;53.750;10.570;2023-03-31T04:04:02;24.17;;;6.83;;
14778;SDS011;7481;53.750;10.570;2023-03-31T04:06:49;17.80;;;6.67;;
14778;SDS011;7481;53.750;10.570;2023-03-31T04:09:37;16.87;;;6.67;;
14778;SDS011;7481;53.750;10.570;2023-03-31T04:12:24;24.97;;;7.20;;
14778;SDS011;7481;53.750;10.570;2023-03-31T04:15:12;18.47;;;6.63;;
14778;SDS011;7481;53.750;10.570;2023-03-31T04:17:59;20.13;;;7.03;;
14778;SDS011;7481;53.750;10.570;2023-03-31T04:20:53;22.77;;;8.00;;
14778;SDS011;7481;53.750;10.570;2023-03-31T04:23:53;18.60;;;7.40;;
14778;SDS011;7481;53.750;10.570;2023-03-31T04:26:44;17.27;;;6.53;;
14778;SDS011;7481;53.750;10.570;2023-03-31T04:29:31;19.33;;;7.93;;
14778;SDS011;7481;53.750;10.570;2023-03-31T04:32:20;21.13;;;7.83;;
14778;SDS011;7481;53.750;10.570;2023-03-31T04:35:07;20.23;;;8.57;;
14778;SDS011;7481;53.750;10.570;2023-03-31T04:37:55;19.13;;;8.23;;
14778;SDS011;7481;53.750;10.570;2023-03-31T04:40:46;20.23;;;8.10;;
14778;SDS011;7481;53.750;10.570;2023-03-31T04:43:34;18.27;;;8.40;;
14778;SDS011;7481;53.750;10.570;2023-03-31T04:46:21;19.30;;;8.70;;
14778;SDS011;7481;53.750;10.570;2023-03-31T04:49:09;20.90;;;9.57;;
14778;SDS011;7481;53.750;10.570;2023-03-31T04:51:56;19.77;;;9.17;;
14778;SDS011;7481;53.750;10.570;2023-03-31T04:54:44;22.90;;;9.47;;
14778;SDS011;7481;53.750;10.570;2023-03-31T04:57:31;24.03;;;11.03;;
14778;SDS011;7481;53.750;10.570;2023-03-31T05:00:19;24.77;;;12.53;;
14778;SDS011;7481;53.750;10.570;2023-03-31T05:03:07;18.70;;;10.33;;
14778;SDS011;7481;53.750;10.570;2023-03-31T05:05:55;17.80;;;9.37;;
14778;SDS011;7481;53.750;10.570;2023-03-31T05:08:43;24.97;;;11.87;;
14778;SDS011;7481;53.750;10.570;2023-03-31T05:11:30;21.27;;;10.67;;
14778;SDS011;7481;53.750;10.570;2023-03-31T05:14:18;19.97;;;11.60;;
14778;SDS011;7481;53.750;10.570;2023-03-31T05:17:06;20.53;;;11.63;;
14778;SDS011;7481;53.750;10.570;2023-03-31T05:19:53;20.63;;;10.67;;
14778;SDS011;7481;53.750;10.570;2023-03-31T05:22:41;19.60;;;11.57;;
14778;SDS011;7481;53.750;10.570;2023-03-31T05:25:29;26.50;;;11.90;;
14778;SDS011;7481;53.750;10.570;2023-03-31T05:28:18;20.63;;;10.70;;
14778;SDS011;7481;53.750;10.570;2023-03-31T05:31:06;22.23;;;10.60;;
14778;SDS011;7481;53.750;10.570;2023-03-31T05:33:54;33.20;;;16.97;;
14778;SDS011;7481;53.750;10.570;2023-03-31T05:36:41;89.80;;;40.30;;
14778;SDS011;7481;53.750;10.570;2023-03-31T05:39:29;76.27;;;40.13;;
14778;SDS011;7481;53.750;10.570;2023-03-31T05:42:18;74.23;;;36.83;;
14778;SDS011;7481;53.750;10.570;2023-03-31T05:45:08;67.73;;;35.57;;
14778;SDS011;7481;53.750;10.570;2023-03-31T05:47:55;23.37;;;12.03;;
14778;SDS011;7481;53.750;10.570;2023-03-31T05:50:43;20.50;;;9.60;;
14778;SDS011;7481;53.750;10.570;2023-03-31T05:53:30;21.23;;;10.63;;
14778;SDS011;7481;53.750;10.570;2023-03-31T05:56:19;26.83;;;10.70;;
14778;SDS011;7481;53.750;10.570;2023-03-31T05:59:07;19.40;;;11.13;;
14778;SDS011;7481;53.750;10.570;2023-03-31T06:01:54;24.27;;;10.43;;
14778;SDS011;7481;53.750;10.570;2023-03-31T06:04:42;20.53;;;10.23;;
14778;SDS011;7481;53.750;10.570;2023-03-31T06:07:30;26.37;;;10.93;;
14778;SDS011;7481;53.750;10.570;2023-03-31T06:10:17;22.03;;;11.47;;
14778;SDS011;7481;53.750;10.570;2023-03-31T06:13:04;18.60;;;10.47;;
14778;SDS011;7481;53.750;10.570;2023-03-31T06:15:52;24.53;;;10.47;;
14778;SDS011;7481;53.750;10.570;2023-03-31T06:18:40;22.77;;;10.73;;
14778;SDS011;7481;53.750;10.570;2023-03-31T06:21:27;24.00;;;12.00;;
14778;SDS011;7481;53.750;10.570;2023-03-31T06:24:15;21.70;;;11.67;;
14778;SDS011;7481;53.750;10.570;2023-03-31T06:27:02;23.33;;;11.07;;
14778;SDS011;7481;53.750;10.570;2023-03-31T06:29:50;24.67;;;11.10;;
14778;SDS011;7481;53.750;10.570;2023-03-31T06:32:37;29.27;;;12.57;;
14778;SDS011;7481;53.750;10.570;2023-03-31T06:35:25;30.05;;;14.68;;
14778;SDS011;7481;53.750;10.570;2023-03-31T06:38:12;21.00;;;11.77;;
14778;SDS011;7481;53.750;10.570;2023-03-31T06:41:00;24.90;;;11.70;;
14778;SDS011;7481;53.750;10.570;2023-03-31T06:43:47;18.70;;;10.90;;
14778;SDS011;7481;53.750;10.570;2023-03-31T06:46:35;20.07;;;11.03;;
14778;SDS011;7481;53.750;10.570;2023-03-31T06:49:23;26.23;;;11.33;;
14778;SDS011;7481;53.750;10.570;2023-03-31T06:52:10;22.40;;;10.70;;
14778;SDS011;7481;53.750;10.570;2023-03-31T06:54:58;23.70;;;12.13;;
14778;SDS011;7481;53.750;10.570;2023-03-31T06:57:46;32.53;;;18.17;;
14778;SDS011;7481;53.750;10.570;2023-03-31T07:00:33;34.83;;;18.37;;
14778;SDS011;7481;53.750;10.570;2023-03-31T07:03:21;24.50;;;11.70;;
14778;SDS011;7481;53.750;10.570;2023-03-31T07:06:10;20.47;;;9.57;;
14778;SDS011;7481;53.750;10.570;2023-03-31T07:08:58;21.43;;;9.97;;
14778;SDS011;7481;53.750;10.570;2023-03-31T07:11:45;20.27;;;10.30;;
14778;SDS011;7481;53.750;10.570;2023-03-31T07:14:33;19.50;;;9.75;;
14778;SDS011;7481;53.750;10.570;2023-03-31T07:17:20;20.10;;;8.87;;
14778;SDS011;7481;53.750;10.570;2023-03-31T07:20:12;18.00;;;9.13;;
14778;SDS011;7481;53.750;10.570;2023-03-31T07:23:03;16.63;;;8.17;;
14778;SDS011;7481;53.750;10.570;2023-03-31T07:25:51;17.00;;;9.30;;
14778;SDS011;7481;53.750;10.570;2023-03-31T07:28:39;16.67;;;8.87;;
14778;SDS011;7481;53.750;10.570;2023-03-31T07:31:27;19.57;;;9.20;;
14778;SDS011;7481;53.750;10.570;2023-03-31T07:34:15;18.57;;;8.27;;
14778;SDS011;7481;53.750;10.570;2023-03-31T07:37:02;18.93;;;8.30;;
14778;SDS011;7481;53.750;10.570;2023-03-31T07:39:50;16.40;;;8.27;;
14778;SDS011;7481;53.750;10.570;2023-03-31T07:42:37;16.60;;;8.47;;
14778;SDS011;7481;53.750;10.570;2023-03-31T07:45:25;16.17;;;8.67;;
14778;SDS011;7481;53.750;10.570;2023-03-31T07:48:13;16.77;;;9.00;;
14778;SDS011;7481;53.750;10.570;2023-03-31T07:51:01;22.65;;;11.05;;
14778;SDS011;7481;53.750;10.570;2023-03-31T07:53:48;19.08;;;10.27;;
14778;SDS011;7481;53.750;10.570;2023-03-31T07:56:37;21.03;;;9.83;;
14778;SDS011;7481;53.750;10.570;2023-03-31T07:59:25;15.73;;;7.60;;
14778;SDS011;7481;53.750;10.570;2023-03-31T08:02:13;12.70;;;7.40;;
14778;SDS011;7481;53.750;10.570;2023-03-31T08:05:02;12.67;;;6.67;;
14778;SDS011;7481;53.750;10.570;2023-03-31T08:07:49;14.37;;;7.00;;
14778;SDS011;7481;53.750;10.570;2023-03-31T08:10:37;15.53;;;7.07;;
14778;SDS011;7481;53.750;10.570;2023-03-31T08:13:24;13.70;;;5.73;;
14778;SDS011;7481;53.750;10.570;2023-03-31T08:16:12;12.37;;;6.77;;
14778;SDS011;7481;53.750;10.570;2023-03-31T08:19:00;12.03;;;6.53;;
14778;SDS011;7481;53.750;10.570;2023-03-31T08:21:47;13.70;;;7.10;;
14778;SDS011;7481;53.750;10.570;2023-03-31T08:24:35;15.47;;;6.93;;
14778;SDS011;7481;53.750;10.570;2023-03-31T08:27:22;13.10;;;6.63;;
14778;SDS011;7481;53.750;10.570;2023-03-31T08:30:11;14.47;;;6.67;;
14778;SDS011;7481;53.750;10.570;2023-03-31T08:32:59;13.13;;;6.53;;
14778;SDS011;7481;53.750;10.570;2023-03-31T08:35:47;26.97;;;10.60;;
14778;SDS011;7481;53.750;10.570;2023-03-31T08:38:35;13.53;;;8.10;;
14778;SDS011;7481;53.750;10.570;2023-03-31T08:41:33;14.13;;;6.70;;
14778;SDS011;7481;53.750;10.570;2023-03-31T08:44:35;13.07;;;6.63;;
14778;SDS011;7481;53.750;10.570;2023-03-31T08:47:25;11.40;;;7.17;;
14778;SDS011;7481;53.750;10.570;2023-03-31T08:50:15;10.27;;;6.93;;
14778;SDS011;7481;53.750;10.570;2023-03-31T08:53:07;13.43;;;8.10;;
14778;SDS011;7481;53.750;10.570;2023-03-31T08:55:57;11.03;;;7.67;;
14778;SDS011;7481;53.750;10.570;2023-03-31T08:58:46;11.63;;;6.77;;
14778;SDS011;7481;53.750;10.570;2023-03-31T09:01:41;12.10;;;7.70;;
14778;SDS011;7481;53.750;10.570;2023-03-31T09:19:31;8.17;;;4.50;;
14778;SDS011;7481;53.750;10.570;2023-03-31T09:22:24;11.37;;;5.17;;
14778;SDS011;7481;53.750;10.570;2023-03-31T09:25:26;11.60;;;5.80;;
14778;SDS011;7481;53.750;10.570;2023-03-31T09:28:21;12.87;;;5.17;;
14778;SDS011;7481;53.750;10.570;2023-03-31T09:31:13;11.10;;;4.77;;
14778;SDS011;7481;53.750;10.570;2023-03-31T09:34:09;8.33;;;4.20;;
14778;SDS011;7481;53.750;10.570;2023-03-31T09:36:58;8.07;;;4.10;;
14778;SDS011;7481;53.750;10.570;2023-03-31T09:39:46;10.33;;;3.90;;
14778;SDS011;7481;53.750;10.570;2023-03-31T09:42:34;7.57;;;3.50;;
14778;SDS011;7481;53.750;10.570;2023-03-31T09:45:21;9.90;;;3.17;;
14778;SDS011;7481;53.750;10.570;2023-03-31T09:48:10;5.00;;;2.83;;
14778;SDS011;7481;53.750;10.570;2023-03-31T09:50:59;9.10;;;3.33;;
14778;SDS011;7481;53.750;10.570;2023-03-31T09:56:53;9.40;;;3.47;;
14778;SDS011;7481;53.750;10.570;2023-03-31T09:59:41;7.83;;;3.93;;
14778;SDS011;7481;53.750;10.570;2023-03-31T10:14:12;9.70;;;3.77;;
14778;SDS011;7481;53.750;10.570;2023-03-31T10:17:01;7.67;;;3.60;;
14778;SDS011;7481;53.750;10.570;2023-03-31T10:19:55;7.00;;;3.23;;
14778;SDS011;7481;53.750;10.570;2023-03-31T10:22:43;6.90;;;3.50;;
14778;SDS011;7481;53.750;10.570;2023-03-31T10:25:31;9.67;;;3.93;;
14778;SDS011;7481;53.750;10.570;2023-03-31T10:28:20;5.07;;;3.50;;
14778;SDS011;7481;53.750;10.570;2023-03-31T10:31:08;6.43;;;3.30;;
14778;SDS011;7481;53.750;10.570;2023-03-31T10:33:56;6.27;;;3.27;;
14778;SDS011;7481;53.750;10.570;2023-03-31T10:36:45;6.00;;;3.20;;
14778;SDS011;7481;53.750;10.570;2023-03-31T10:39:33;7.43;;;3.87;;
14778;SDS011;7481;53.750;10.570;2023-03-31T10:42:21;6.20;;;3.50;;
14778;SDS011;7481;53.750;10.570;2023-03-31T10:48:25;8.70;;;3.60;;
14778;SDS011;7481;53.750;10.570;2023-03-31T10:54:03;5.63;;;4.13;;
14778;SDS011;7481;53.750;10.570;2023-03-31T10:56:53;9.10;;;4.30;;
14778;SDS011;7481;53.750;10.570;2023-03-31T10:59:48;5.17;;;3.90;;
14778;SDS011;7481;53.750;10.570;2023-03-31T11:14:15;6.90;;;3.33;;
14778;SDS011;7481;53.750;10.570;2023-03-31T11:17:08;5.47;;;3.33;;
14778;SDS011;7481;53.750;10.570;2023-03-31T11:22:55;11.33;;;5.63;;
14778;SDS011;7481;53.750;10.570;2023-03-31T11:31:52;4.73;;;3.07;;
14778;SDS011;7481;53.750;10.570;2023-03-31T11:34:54;9.80;;;5.03;;
14778;SDS011;7481;53.750;10.570;2023-03-31T11:38:02;3.97;;;3.13;;
14778;SDS011;7481;53.750;10.570;2023-03-31T11:41:36;3.90;;;2.70;;
14778;SDS011;7481;53.750;10.570;2023-03-31T11:44:04;4.67;;;2.70;;
14778;SDS011;7481;53.750;10.570;2023-03-31T11:46:56;4.90;;;2.53;;
14778;SDS011;7481;53.750;10.570;2023-03-31T11:49:50;3.43;;;2.83;;
14778;SDS011;7481;53.750;10.570;2023-03-31T11:52:38;3.53;;;2.50;;
14778;SDS011;7481;53.750;10.570;2023-03-31T11:55:27;5.00;;;2.37;;
14778;SDS011;7481;53.750;10.570;2023-03-31T11:58:20;2.77;;;2.10;;
14778;SDS011;7481;53.750;10.570;2023-03-31T12:04:08;3.33;;;1.90;;
14778;SDS011;7481;53.750;10.570;2023-03-31T12:07:03;4.00;;;1.70;;
14778;SDS011;7481;53.750;10.570;2023-03-31T12:13:08;2.80;;;2.00;;
14778;SDS011;7481;53.750;10.570;2023-03-31T12:19:10;4.83;;;2.07;;
14778;SDS011;7481;53.750;10.570;2023-03-31T12:22:03;3.43;;;1.67;;
14778;SDS011;7481;53.750;10.570;2023-03-31T12:24:51;3.53;;;2.77;;
14778;SDS011;7481;53.750;10.570;2023-03-31T12:27:40;5.23;;;2.20;;
14778;SDS011;7481;53.750;10.570;2023-03-31T12:30:29;4.50;;;1.90;;
14778;SDS011;7481;53.750;10.570;2023-03-31T12:33:30;3.50;;;2.27;;
14778;SDS011;7481;53.750;10.570;2023-03-31T12:45:29;4.50;;;2.73;;
14778;SDS011;7481;53.750;10.570;2023-03-31T12:51:11;5.30;;;2.50;;
14778;SDS011;7481;53.750;10.570;2023-03-31T12:54:11;9.00;;;3.00;;
14778;SDS011;7481;53.750;10.570;2023-03-31T12:57:12;4.70;;;2.20;;
14778;SDS011;7481;53.750;10.570;2023-03-31T13:06:04;3.00;;;1.80;;
14778;SDS011;7481;53.750;10.570;2023-03-31T13:11:45;5.77;;;3.13;;
14778;SDS011;7481;53.750;10.570;2023-03-31T13:14:36;4.97;;;2.13;;
14778;SDS011;7481;53.750;10.570;2023-03-31T13:17:25;5.40;;;2.90;;
14778;SDS011;7481;53.750;10.570;2023-03-31T13:20:14;3.33;;;1.67;;
14778;SDS011;7481;53.750;10.570;2023-03-31T13:23:03;3.10;;;1.70;;
14778;SDS011;7481;53.750;10.570;2023-03-31T13:25:54;3.50;;;1.80;;
14778;SDS011;7481;53.750;10.570;2023-03-31T13:28:45;5.40;;;1.80;;
14778;SDS011;7481;53.750;10.570;2023-03-31T13:32:04;2.63;;;1.60;;
14778;SDS011;7481;53.750;10.570;2023-03-31T13:37:58;3.67;;;1.90;;
14778;SDS011;7481;53.750;10.570;2023-03-31T13:40:51;9.53;;;5.47;;
14778;SDS011;7481;53.750;10.570;2023-03-31T13:43:48;3.47;;;2.00;;
14778;SDS011;7481;53.750;10.570;2023-03-31T13:46:45;5.47;;;1.93;;
14778;SDS011;7481;53.750;10.570;2023-03-31T13:52:34;4.30;;;2.50;;
14778;SDS011;7481;53.750;10.570;2023-03-31T13:55:27;3.10;;;1.93;;
14778;SDS011;7481;53.750;10.570;2023-03-31T13:58:19;3.07;;;1.80;;
14778;SDS011;7481;53.750;10.570;2023-03-31T14:04:19;2.57;;;2.00;;
14778;SDS011;7481;53.750;10.570;2023-03-31T14:07:13;3.07;;;1.90;;
14778;SDS011;7481;53.750;10.570;2023-03-31T14:10:03;3.37;;;2.40;;
14778;SDS011;7481;53.750;10.570;2023-03-31T14:13:02;3.07;;;2.10;;
14778;SDS011;7481;53.750;10.570;2023-03-31T14:15:51;3.40;;;2.10;;
14778;SDS011;7481;53.750;10.570;2023-03-31T14:18:42;5.30;;;2.17;;
14778;SDS011;7481;53.750;10.570;2023-03-31T14:21:42;4.73;;;2.33;;
14778;SDS011;7481;53.750;10.570;2023-03-31T14:24:39;5.53;;;2.73;;
14778;SDS011;7481;53.750;10.570;2023-03-31T14:36:12;6.73;;;3.37;;
14778;SDS011;7481;53.750;10.570;2023-03-31T14:39:02;2.87;;;2.50;;
14778;SDS011;7481;53.750;10.570;2023-03-31T14:41:53;4.50;;;2.50;;
14778;SDS011;7481;53.750;10.570;2023-03-31T14:44:41;5.30;;;2.60;;
14778;SDS011;7481;53.750;10.570;2023-03-31T14:47:33;5.47;;;2.60;;
14778;SDS011;7481;53.750;10.570;2023-03-31T14:50:20;4.70;;;2.43;;
14778;SDS011;7481;53.750;10.570;2023-03-31T14:53:15;4.10;;;2.67;;
14778;SDS011;7481;53.750;10.570;2023-03-31T14:56:06;3.90;;;2.63;;
14778;SDS011;7481;53.750;10.570;2023-03-31T14:58:56;5.30;;;2.53;;
14778;SDS011;7481;53.750;10.570;2023-03-31T15:01:43;2.93;;;2.40;;
14778;SDS011;7481;53.750;10.570;2023-03-31T15:04:35;3.83;;;2.23;;
14778;SDS011;7481;53.750;10.570;2023-03-31T15:07:30;5.70;;;2.53;;
14778;SDS011;7481;53.750;10.570;2023-03-31T15:10:19;4.90;;;2.50;;
14778;SDS011;7481;53.750;10.570;2023-03-31T15:13:08;6.83;;;2.90;;
14778;SDS011;7481;53.750;10.570;2023-03-31T15:15:56;7.47;;;3.23;;
14778;SDS011;7481;53.750;10.570;2023-03-31T15:18:43;9.33;;;4.67;;
14778;SDS011;7481;53.750;10.570;2023-03-31T15:21:33;23.93;;;13.47;;
14778;SDS011;7481;53.750;10.570;2023-03-31T15:24:22;21.57;;;10.37;;
14778;SDS011;7481;53.750;10.570;2023-03-31T15:30:23;4.93;;;3.00;;
14778;SDS011;7481;53.750;10.570;2023-03-31T15:33:16;6.50;;;3.17;;
14778;SDS011;7481;53.750;10.570;2023-03-31T15:36:06;6.27;;;4.40;;
14778;SDS011;7481;53.750;10.570;2023-03-31T15:38:54;9.20;;;6.50;;
14778;SDS011;7481;53.750;10.570;2023-03-31T15:41:43;7.93;;;4.57;;
14778;SDS011;7481;53.750;10.570;2023-03-31T15:44:44;8.73;;;6.33;;
14778;SDS011;7481;53.750;10.570;2023-03-31T15:47:32;7.93;;;4.95;;
14778;SDS011;7481;53.750;10.570;2023-03-31T15:50:24;8.70;;;4.47;;
14778;SDS011;7481;53.750;10.570;2023-03-31T15:56:34;8.37;;;3.90;;
14778;SDS011;7481;53.750;10.570;2023-03-31T15:59:24;9.43;;;4.63;;
14778;SDS011;7481;53.750;10.570;2023-03-31T16:02:24;10.63;;;3.90;;
14778;SDS011;7481;53.750;10.570;2023-03-31T16:05:34;6.13;;;3.10;;
14778;SDS011;7481;53.750;10.570;2023-03-31T16:08:40;4.57;;;2.83;;
14778;SDS011;7481;53.750;10.570;2023-03-31T16:11:38;4.20;;;2.93;;
14778;SDS011;7481;53.750;10.570;2023-03-31T16:14:31;4.37;;;2.90;;
14778;SDS011;7481;53.750;10.570;2023-03-31T16:17:30;2.40;;;2.10;;
14778;SDS011;7481;53.750;10.570;2023-03-31T16:20:22;6.20;;;2.70;;
14778;SDS011;7481;53.750;10.570;2023-03-31T16:23:20;3.17;;;2.23;;
14778;SDS011;7481;53.750;10.570;2023-03-31T16:26:08;3.03;;;2.30;;
14778;SDS011;7481;53.750;10.570;2023-03-31T16:28:57;3.63;;;2.53;;
14778;SDS011;7481;53.750;10.570;2023-03-31T16:31:46;2.60;;;2.30;;
14778;SDS011;7481;53.750;10.570;2023-03-31T16:34:34;5.13;;;2.80;;
14778;SDS011;7481;53.750;10.570;2023-03-31T16:37:37;4.93;;;3.77;;
14778;SDS011;7481;53.750;10.570;2023-03-31T16:40:24;4.77;;;2.73;;
14778;SDS011;7481;53.750;10.570;2023-03-31T16:43:15;4.90;;;2.80;;
14778;SDS011;7481;53.750;10.570;2023-03-31T16:46:03;3.07;;;2.07;;
14778;SDS011;7481;53.750;10.570;2023-03-31T16:48:51;3.40;;;2.50;;
14778;SDS011;7481;53.750;10.570;2023-03-31T16:51:38;3.87;;;2.10;;
14778;SDS011;7481;53.750;10.570;2023-03-31T16:54:26;4.60;;;2.63;;
14778;SDS011;7481;53.750;10.570;2023-03-31T16:57:13;2.00;;;1.80;;
14778;SDS011;7481;53.750;10.570;2023-03-31T17:00:02;3.20;;;2.20;;
14778;SDS011;7481;53.750;10.570;2023-03-31T17:02:49;6.00;;;2.87;;
14778;SDS011;7481;53.750;10.570;2023-03-31T17:05:38;4.43;;;2.47;;
14778;SDS011;7481;53.750;10.570;2023-03-31T17:08:26;2.70;;;2.40;;
14778;SDS011;7481;53.750;10.570;2023-03-31T17:11:14;2.70;;;2.17;;
14778;SDS011;7481;53.750;10.570;2023-03-31T17:14:01;3.10;;;2.27;;
14778;SDS011;7481;53.750;10.570;2023-03-31T17:16:50;3.20;;;2.00;;
14778;SDS011;7481;53.750;10.570;2023-03-31T17:19:38;2.30;;;2.10;;
14778;SDS011;7481;53.750;10.570;2023-03-31T17:22:26;1.90;;;1.80;;
14778;SDS011;7481;53.750;10.570;2023-03-31T17:25:14;4.40;;;2.30;;
14778;SDS011;7481;53.750;10.570;2023-03-31T17:28:03;2.33;;;2.03;;
14778;SDS011;7481;53.750;10.570;2023-03-31T17:30:51;3.00;;;2.30;;
14778;SDS011;7481;53.750;10.570;2023-03-31T17:33:39;3.93;;;2.43;;
14778;SDS011;7481;53.750;10.570;2023-03-31T17:36:27;3.90;;;2.27;;
14778;SDS011;7481;53.750;10.570;2023-03-31T17:39:14;4.53;;;2.33;;
14778;SDS011;7481;53.750;10.570;2023-03-31T17:42:02;6.90;;;2.37;;
14778;SDS011;7481;53.750;10.570;2023-03-31T17:44:49;4.03;;;2.40;;
14778;SDS011;7481;53.750;10.570;2023-03-31T17:47:38;2.87;;;2.10;;
14778;SDS011;7481;53.750;10.570;2023-03-31T17:50:27;3.27;;;2.50;;
14778;SDS011;7481;53.750;10.570;2023-03-31T17:53:14;3.37;;;2.40;;
14778;SDS011;7481;53.750;10.570;2023-03-31T17:56:02;4.63;;;2.70;;
14778;SDS011;7481;53.750;10.570;2023-03-31T17:58:50;3.63;;;2.60;;
14778;SDS011;7481;53.750;10.570;2023-03-31T18:01:37;4.50;;;2.70;;
14778;SDS011;7481;53.750;10.570;2023-03-31T18:04:25;3.80;;;2.67;;
14778;SDS011;7481;53.750;10.570;2023-03-31T18:07:13;3.37;;;2.60;;
14778;SDS011;7481;53.750;10.570;2023-03-31T18:10:03;3.47;;;2.40;;
14778;SDS011;7481;53.750;10.570;2023-03-31T18:12:51;2.83;;;2.50;;
14778;SDS011;7481;53.750;10.570;2023-03-31T18:15:47;8.77;;;2.90;;
14778;SDS011;7481;53.750;10.570;2023-03-31T18:18:38;2.73;;;2.53;;
14778;SDS011;7481;53.750;10.570;2023-03-31T18:21:25;3.33;;;2.67;;
14778;SDS011;7481;53.750;10.570;2023-03-31T18:24:13;3.87;;;2.40;;
14778;SDS011;7481;53.750;10.570;2023-03-31T18:27:02;2.87;;;2.47;;
14778;SDS011;7481;53.750;10.570;2023-03-31T18:29:49;3.37;;;2.97;;
14778;SDS011;7481;53.750;10.570;2023-03-31T18:32:36;3.27;;;2.80;;
14778;SDS011;7481;53.750;10.570;2023-03-31T18:35:24;6.47;;;3.13;;
14778;SDS011;7481;53.750;10.570;2023-03-31T18:38:12;4.60;;;2.90;;
14778;SDS011;7481;53.750;10.570;2023-03-31T18:41:01;5.57;;;3.37;;
14778;SDS011;7481;53.750;10.570;2023-03-31T18:43:49;3.40;;;2.97;;
14778;SDS011;7481;53.750;10.570;2023-03-31T18:46:37;4.20;;;2.90;;
14778;SDS011;7481;53.750;10.570;2023-03-31T18:49:25;2.70;;;2.37;;
14778;SDS011;7481;53.750;10.570;2023-03-31T18:52:12;7.53;;;3.07;;
14778;SDS011;7481;53.750;10.570;2023-03-31T18:55:00;5.10;;;2.20;;
14778;SDS011;7481;53.750;10.570;2023-03-31T18:57:48;4.77;;;2.53;;
14778;SDS011;7481;53.750;10.570;2023-03-31T19:00:35;3.17;;;2.47;;
14778;SDS011;7481;53.750;10.570;2023-03-31T19:03:23;3.33;;;2.93;;
14778;SDS011;7481;53.750;10.570;2023-03-31T19:06:12;5.13;;;3.50;;
14778;SDS011;7481;53.750;10.570;2023-03-31T19:09:02;4.70;;;3.60;;
14778;SDS011;7481;53.750;10.570;2023-03-31T19:11:50;6.13;;;4.83;;
14778;SDS011;7481;53.750;10.570;2023-03-31T19:14:38;8.70;;;5.40;;
14778;SDS011;7481;53.750;10.570;2023-03-31T19:17:26;6.87;;;4.83;;
14778;SDS011;7481;53.750;10.570;2023-03-31T19:20:14;7.63;;;4.60;;
14778;SDS011;7481;53.750;10.570;2023-03-31T19:23:02;10.87;;;6.83;;
14778;SDS011;7481;53.750;10.570;2023-03-31T19:25:50;14.87;;;9.40;;
14778;SDS011;7481;53.750;10.570;2023-03-31T19:28:38;7.87;;;4.93;;